Terminal Aerodrome Forecast
Issued by NWS

Home | Current Version | Previous Version | Text Only | Print | Product List | Glossary On
Versions: 1 2 3 4 5 6 7 8 9 10 11 12
830
FTUS43 KAPX 250528
TAFMBL
TAF
KMBL 250528Z 2506/2606 11002KT P6SM SCT070 BKN120
     FM251700 31007KT P6SM SCT050 BKN200
     FM260100 11003KT P6SM BKN120
     FM260400 11004KT P6SM -SHRA BKN040 OVC120
      AMD LTD TO CLD VIS AND WIND=

USA.gov is the U.S. government's official web portal to all federal, state and local government web resources and services.